9VYFD WSSL-WSSL

Flight info

Callsign 9VYFD
Flight time 0h 8m
Altitude 7000
Route LATA/CCTS
Aircraft DA40/L-V/N

Departure

Time 2026-04-17 14:30
Airport Seletar Airport (WSSL)

Arrival

Time 2026-04-17 14:39
Airport Seletar Airport (WSSL)
Time Latitude Longitude Altitude Speed Heading
2026-04-17 14:10 1.41367 103.86325 49 ft 0 kts 97°
2026-04-17 14:18 1.41365 103.86342 49 ft 6 kts 96°
2026-04-17 14:18 1.41385 103.86381 49 ft 8 kts 33°
2026-04-17 14:19 1.41453 103.86426 49 ft 11 kts 34°
2026-04-17 14:19 1.41503 103.86470 49 ft 8 kts 33°
2026-04-17 14:19 1.41527 103.86482 49 ft 0 kts 344°
2026-04-17 14:26 1.41541 103.86493 49 ft 7 kts 45°
2026-04-17 14:27 1.41567 103.86520 49 ft 4 kts 108°
2026-04-17 14:27 1.41552 103.86543 49 ft 5 kts 123°
2026-04-17 14:27 1.41548 103.86548 49 ft 0 kts 123°
2026-04-17 14:28 1.41525 103.86586 50 ft 18 kts 123°
2026-04-17 14:29 1.41422 103.86587 49 ft 21 kts 213°
2026-04-17 14:29 1.41320 103.86504 49 ft 10 kts 202°
2026-04-17 14:29 1.41312 103.86514 49 ft 1 kts 51°
2026-04-17 14:29 1.41372 103.86555 49 ft 35 kts 32°
2026-04-17 14:30 1.41719 103.86779 83 ft 76 kts 33°
2026-04-17 14:30 1.42174 103.87073 282 ft 79 kts 33°
2026-04-17 14:30 1.42653 103.87386 501 ft 83 kts 34°
2026-04-17 14:30 1.43167 103.87578 767 ft 80 kts 355°
2026-04-17 14:31 1.43646 103.87297 983 ft 83 kts 308°
2026-04-17 14:31 1.43870 103.86761 1059 ft 93 kts 255°
2026-04-17 14:31 1.43479 103.86233 1048 ft 96 kts 221°
2026-04-17 14:31 1.42950 103.85804 1036 ft 100 kts 215°
2026-04-17 14:32 1.42376 103.85394 1013 ft 102 kts 215°
2026-04-17 14:32 1.41819 103.84980 1040 ft 99 kts 214°
2026-04-17 14:32 1.41306 103.84610 973 ft 86 kts 215°
2026-04-17 14:32 1.40818 103.84288 843 ft 82 kts 199°
2026-04-17 14:33 1.40369 103.84504 699 ft 78 kts 123°
2026-04-17 14:33 1.40049 103.84950 519 ft 80 kts 124°
2026-04-17 14:33 1.39796 103.85427 352 ft 77 kts 85°
2026-04-17 14:33 1.40184 103.85779 249 ft 74 kts 31°
2026-04-17 14:34 1.40594 103.86044 142 ft 69 kts 33°
2026-04-17 14:34 1.40992 103.86305 50 ft 63 kts 33°
2026-04-17 14:34 1.41310 103.86512 49 ft 62 kts 33°
2026-04-17 14:34 1.41732 103.86775 210 ft 74 kts 33°
2026-04-17 14:35 1.42179 103.87069 407 ft 82 kts 37°
2026-04-17 14:35 1.42648 103.87418 628 ft 84 kts 48°
2026-04-17 14:35 1.43152 103.87639 888 ft 80 kts 355°
2026-04-17 14:35 1.43633 103.87361 1088 ft 86 kts 307°
2026-04-17 14:36 1.43813 103.86792 1335 ft 86 kts 263°
2026-04-17 14:36 1.43540 103.86244 1525 ft 93 kts 226°
2026-04-17 14:36 1.43070 103.85788 1568 ft 89 kts 222°
2026-04-17 14:36 1.42761 103.85528 1509 ft 87 kts 214°
2026-04-17 14:37 1.42278 103.85191 1464 ft 83 kts 212°
2026-04-17 14:37 1.41793 103.84871 1429 ft 85 kts 212°
2026-04-17 14:37 1.41304 103.84555 1269 ft 82 kts 210°
2026-04-17 14:37 1.40810 103.84311 1116 ft 78 kts 188°
2026-04-17 14:38 1.40297 103.84452 910 ft 79 kts 137°
2026-04-17 14:38 1.40006 103.84915 707 ft 81 kts 103°
2026-04-17 14:38 1.40007 103.85485 496 ft 83 kts 71°
2026-04-17 14:38 1.40366 103.85901 306 ft 80 kts 38°
2026-04-17 14:39 1.40809 103.86183 79 ft 70 kts 36°
2026-04-17 14:39 1.41135 103.86399 48 ft 42 kts 36°
2026-04-17 14:39 1.41458 103.86609 86 ft 71 kts 31°
2026-04-17 14:39 1.41883 103.86864 293 ft 73 kts 35°
2026-04-17 14:40 1.42327 103.87136 522 ft 76 kts 27°
2026-04-17 14:40 1.42810 103.87395 729 ft 81 kts 20°
2026-04-17 14:40 1.43343 103.87254 890 ft 91 kts 316°
2026-04-17 14:40 1.43638 103.86747 1139 ft 90 kts 267°
2026-04-17 14:41 1.43335 103.86172 1337 ft 93 kts 231°
2026-04-17 14:41 1.42889 103.85740 1508 ft 88 kts 217°
2026-04-17 14:41 1.42412 103.85372 1580 ft 86 kts 214°
2026-04-17 14:41 1.41930 103.85011 1594 ft 84 kts 216°
2026-04-17 14:42 1.41474 103.84663 1428 ft 82 kts 216°
2026-04-17 14:42 1.41011 103.84309 1229 ft 83 kts 212°
2026-04-17 14:42 1.40459 103.84249 1037 ft 80 kts 161°
2026-04-17 14:42 1.40018 103.84581 854 ft 81 kts 125°
2026-04-17 14:43 1.39774 103.85079 668 ft 80 kts 99°
2026-04-17 14:43 1.39928 103.85603 444 ft 83 kts 42°
2026-04-17 14:43 1.40388 103.85915 292 ft 76 kts 33°
2026-04-17 14:43 1.40825 103.86197 75 ft 72 kts 35°
2026-04-17 14:44 1.41165 103.86419 49 ft 45 kts 34°
2026-04-17 14:44 1.41515 103.86647 112 ft 71 kts 32°
2026-04-17 14:44 1.41952 103.86918 327 ft 75 kts 31°
2026-04-17 14:44 1.42406 103.87204 565 ft 77 kts 32°
2026-04-17 14:45 1.42908 103.87336 780 ft 81 kts 356°
2026-04-17 14:45 1.43369 103.87012 983 ft 85 kts 301°
2026-04-17 14:45 1.43467 103.86434 1217 ft 87 kts 254°
2026-04-17 14:45 1.43173 103.85883 1404 ft 92 kts 228°
2026-04-17 14:46 1.42691 103.85482 1548 ft 94 kts 214°
2026-04-17 14:46 1.42144 103.85083 1539 ft 101 kts 213°
2026-04-17 14:46 1.41549 103.84682 1535 ft 106 kts 211°
2026-04-17 14:46 1.40937 103.84277 1555 ft 104 kts 214°
2026-04-17 14:47 1.40406 103.83803 1587 ft 102 kts 224°
2026-04-17 14:47 1.39876 103.83298 1541 ft 107 kts 214°
2026-04-17 14:47 1.39235 103.82939 1550 ft 105 kts 207°
2026-04-17 14:47 1.38867 103.82332 1513 ft 110 kts 267°
2026-04-17 14:48 1.38876 103.81597 1542 ft 103 kts 271°
2026-04-17 14:48 1.38882 103.80870 1632 ft 102 kts 269°
2026-04-17 14:48 1.38865 103.80190 1900 ft 95 kts 266°
2026-04-17 14:48 1.38819 103.79540 2174 ft 90 kts 263°
2026-04-17 14:49 1.38878 103.78927 2390 ft 93 kts 297°
2026-04-17 14:49 1.39349 103.78499 2616 ft 90 kts 337°
2026-04-17 14:49 1.39939 103.78300 2841 ft 90 kts 341°
2026-04-17 14:49 1.40560 103.78309 3033 ft 91 kts 12°
2026-04-17 14:50 1.41088 103.78097 3286 ft 87 kts 302°
2026-04-17 14:50 1.41149 103.77524 3499 ft 86 kts 251°
2026-04-17 14:50 1.40728 103.77166 3680 ft 87 kts 180°
2026-04-17 14:50 1.40131 103.77308 3855 ft 90 kts 160°
2026-04-17 14:51 1.39559 103.77527 4088 ft 85 kts 156°
2026-04-17 14:51 1.39031 103.77774 4300 ft 82 kts 149°
2026-04-17 14:51 1.38522 103.78074 4480 ft 84 kts 146°
2026-04-17 14:51 1.38031 103.78422 4631 ft 89 kts 143°
2026-04-17 14:52 1.37666 103.78900 4817 ft 89 kts 106°
2026-04-17 14:52 1.37730 103.79495 5006 ft 89 kts 62°
2026-04-17 14:52 1.38057 103.80010 5181 ft 89 kts 60°
2026-04-17 14:52 1.38360 103.80544 5363 ft 88 kts 63°
2026-04-17 14:53 1.38634 103.81096 5529 ft 89 kts 65°
2026-04-17 14:53 1.38921 103.81638 5694 ft 89 kts 62°
2026-04-17 14:53 1.39240 103.82169 5862 ft 88 kts 59°
2026-04-17 14:53 1.39580 103.82685 6018 ft 90 kts 57°
2026-04-17 14:54 1.39942 103.83192 6185 ft 89 kts 55°
2026-04-17 14:54 1.40317 103.83688 6337 ft 89 kts 54°
2026-04-17 14:54 1.40707 103.84176 6474 ft 89 kts 49°
2026-04-17 14:54 1.41124 103.84638 6607 ft 91 kts 44°
2026-04-17 14:55 1.41705 103.84828 6748 ft 90 kts 351°
2026-04-17 14:55 1.42192 103.84464 6867 ft 92 kts 292°
2026-04-17 14:55 1.42335 103.83858 7007 ft 87 kts 277°
2026-04-17 14:55 1.42437 103.83307 7174 ft 81 kts 277°
2026-04-17 14:56 1.42511 103.82704 7251 ft 89 kts 273°
2026-04-17 14:56 1.42538 103.82097 7358 ft 91 kts 269°
2026-04-17 14:56 1.42526 103.81467 7495 ft 90 kts 265°
2026-04-17 14:56 1.42514 103.80863 7555 ft 90 kts 268°
2026-04-17 14:57 1.42508 103.80238 7682 ft 89 kts 270°
2026-04-17 14:57 1.42537 103.79625 7806 ft 88 kts 267°
2026-04-17 14:57 1.42487 103.79019 7915 ft 88 kts 261°
2026-04-17 14:57 1.42390 103.78390 7993 ft 92 kts 257°
2026-04-17 14:58 1.42183 103.77820 8127 ft 87 kts 224°
2026-04-17 14:58 1.41623 103.77571 8210 ft 87 kts 185°
2026-04-17 14:58 1.41037 103.77521 8303 ft 88 kts 184°
2026-04-17 14:58 1.40447 103.77487 8351 ft 85 kts 181°
2026-04-17 14:59 1.39861 103.77459 8178 ft 93 kts 185°
2026-04-17 14:59 1.39266 103.77475 8313 ft 89 kts 160°
2026-04-17 14:59 1.38837 103.77879 8449 ft 83 kts 114°
2026-04-17 14:59 1.38625 103.78446 8488 ft 90 kts 108°
2026-04-17 15:00 1.38431 103.79047 8568 ft 90 kts 108°
2026-04-17 15:00 1.38246 103.79639 8670 ft 87 kts 109°
2026-04-17 15:00 1.38079 103.80208 8760 ft 84 kts 105°
2026-04-17 15:00 1.37929 103.80779 8823 ft 86 kts 105°
2026-04-17 15:01 1.37804 103.81375 8865 ft 90 kts 94°
2026-04-17 15:01 1.38084 103.81925 8931 ft 91 kts 49°
2026-04-17 15:01 1.38516 103.82391 8978 ft 94 kts 46°
2026-04-17 15:01 1.38990 103.82844 9043 ft 94 kts 41°
2026-04-17 15:02 1.39502 103.83253 9093 ft 95 kts 38°
2026-04-17 15:02 1.40099 103.83472 9136 ft 95 kts 356°
2026-04-17 15:02 1.40707 103.83227 9141 ft 92 kts 327°
2026-04-17 15:02 1.41272 103.82897 9144 ft 92 kts 329°
2026-04-17 15:03 1.41821 103.82579 9069 ft 97 kts 330°
2026-04-17 15:03 1.42408 103.82246 9133 ft 92 kts 328°
2026-04-17 15:03 1.42949 103.81881 9165 ft 94 kts 312°
2026-04-17 15:03 1.43146 103.81278 9187 ft 94 kts 258°
2026-04-17 15:04 1.42807 103.80740 9237 ft 89 kts 217°
2026-04-17 15:04 1.42277 103.80407 9070 ft 90 kts 209°
2026-04-17 15:04 1.41702 103.80126 9111 ft 89 kts 200°
2026-04-17 15:04 1.41113 103.79917 9133 ft 92 kts 196°
2026-04-17 15:05 1.40506 103.79743 9197 ft 89 kts 194°
2026-04-17 15:05 1.39920 103.79782 8849 ft 101 kts 141°
2026-04-17 15:05 1.39539 103.80351 8691 ft 93 kts 122°
2026-04-17 15:05 1.39264 103.80847 8764 ft 82 kts 115°
2026-04-17 15:06 1.39062 103.81400 8763 ft 86 kts 104°
2026-04-17 15:06 1.38946 103.82010 8772 ft 89 kts 100°
2026-04-17 15:06 1.39013 103.82619 8855 ft 89 kts 69°
2026-04-17 15:06 1.39261 103.83215 8884 ft 94 kts 66°
2026-04-17 15:07 1.39538 103.83806 8951 ft 94 kts 64°
2026-04-17 15:07 1.39918 103.84336 8991 ft 96 kts 32°
2026-04-17 15:07 1.40569 103.84450 9075 ft 93 kts 356°
2026-04-17 15:07 1.41233 103.84392 9071 ft 100 kts 352°
2026-04-17 15:08 1.41924 103.84294 9121 ft 99 kts 350°
2026-04-17 15:08 1.42589 103.84147 9170 ft 98 kts 342°
2026-04-17 15:08 1.43209 103.83881 9226 ft 96 kts 332°
2026-04-17 15:08 1.43787 103.83550 9280 ft 95 kts 326°
2026-04-17 15:09 1.44338 103.83165 9297 ft 97 kts 317°
2026-04-17 15:09 1.44654 103.82609 9295 ft 91 kts 282°
2026-04-17 15:09 1.44708 103.81946 8965 ft 102 kts 255°
2026-04-17 15:09 1.44545 103.81264 8686 ft 104 kts 257°
2026-04-17 15:10 1.44373 103.80560 8473 ft 98 kts 247°
2026-04-17 15:10 1.43961 103.80052 8212 ft 99 kts 214°
2026-04-17 15:10 1.43346 103.79823 8055 ft 90 kts 180°
2026-04-17 15:11 1.42032 103.79871 7969 ft 84 kts 172°
2026-04-17 15:11 1.41447 103.79984 8047 ft 88 kts 165°
2026-04-17 15:11 1.40855 103.80150 8160 ft 87 kts 163°
2026-04-17 15:11 1.40374 103.80494 8252 ft 89 kts 112°
2026-04-17 15:12 1.40624 103.81013 8214 ft 103 kts 10°
2026-04-17 15:12 1.41285 103.80985 8393 ft 92 kts 348°
2026-04-17 15:12 1.41920 103.80804 8466 ft 94 kts 341°
2026-04-17 15:12 1.42518 103.80573 8559 ft 94 kts 337°
2026-04-17 15:13 1.43124 103.80323 8653 ft 93 kts 340°
2026-04-17 15:13 1.43776 103.80354 8680 ft 97 kts 26°
2026-04-17 15:13 1.44212 103.80847 8738 ft 97 kts 71°
2026-04-17 15:13 1.44222 103.81495 8823 ft 93 kts 106°
2026-04-17 15:14 1.43991 103.82097 8894 ft 92 kts 111°
2026-04-17 15:14 1.43756 103.82694 8957 ft 93 kts 116°
2026-04-17 15:14 1.43475 103.83272 9013 ft 93 kts 116°
2026-04-17 15:14 1.42997 103.83684 9049 ft 93 kts 169°
2026-04-17 15:15 1.42377 103.83551 9100 ft 93 kts 215°
2026-04-17 15:15 1.42003 103.83028 9129 ft 96 kts 253°
2026-04-17 15:15 1.41814 103.82408 9178 ft 95 kts 249°
2026-04-17 15:15 1.41611 103.81750 9187 ft 99 kts 251°
2026-04-17 15:16 1.41403 103.81086 9185 ft 102 kts 250°
2026-04-17 15:16 1.41173 103.80416 9183 ft 104 kts 248°
2026-04-17 15:16 1.40691 103.79906 9169 ft 105 kts 194°
2026-04-17 15:16 1.40051 103.80151 9187 ft 102 kts 133°
2026-04-17 15:17 1.39607 103.80666 9244 ft 98 kts 129°
2026-04-17 15:17 1.39201 103.81217 9290 ft 98 kts 124°
2026-04-17 15:17 1.38874 103.81808 9318 ft 98 kts 106°
2026-04-17 15:17 1.39139 103.82397 9310 ft 103 kts 25°
2026-04-17 15:18 1.39808 103.82329 9379 ft 98 kts 339°
2026-04-17 15:18 1.40460 103.82076 9359 ft 102 kts 336°
2026-04-17 15:18 1.41104 103.81803 9399 ft 100 kts 336°
2026-04-17 15:18 1.41741 103.81516 9414 ft 100 kts 334°
2026-04-17 15:19 1.42370 103.81211 9429 ft 101 kts 333°
2026-04-17 15:19 1.42990 103.80886 9458 ft 99 kts 330°
2026-04-17 15:19 1.43429 103.80390 9412 ft 102 kts 269°
2026-04-17 15:19 1.43002 103.79931 9439 ft 97 kts 201°
2026-04-17 15:20 1.42362 103.79710 9444 ft 97 kts 196°
2026-04-17 15:20 1.41711 103.79542 9454 ft 97 kts 193°
2026-04-17 15:20 1.41052 103.79392 9467 ft 96 kts 190°
2026-04-17 15:20 1.40391 103.79276 9450 ft 98 kts 189°
2026-04-17 15:21 1.39737 103.79354 9466 ft 97 kts 150°
2026-04-17 15:21 1.39340 103.79880 9467 ft 98 kts 103°
2026-04-17 15:21 1.39343 103.80332 9491 ft 97 kts 81°
2026-04-17 15:21 1.39512 103.81180 9486 ft 77 kts 81°
2026-04-17 15:22 1.39563 103.81464 9458 ft 60 kts 91°
2026-04-17 15:22 1.39626 103.81892 9209 ft 48 kts 69°
2026-04-17 15:22 1.39650 103.82035 7007 ft 13 kts 262°
2026-04-17 15:22 1.39757 103.82502 6288 ft 72 kts 77°
2026-04-17 15:23 1.39903 103.82892 5919 ft 100 kts 45°
2026-04-17 15:23 1.40380 103.82609 5771 ft 83 kts 305°
2026-04-17 15:23 1.40747 103.82127 5573 ft 84 kts 307°
2026-04-17 15:23 1.40977 103.81586 5330 ft 91 kts 283°
2026-04-17 15:24 1.41133 103.80953 5063 ft 97 kts 284°
2026-04-17 15:24 1.40823 103.80467 4811 ft 92 kts 176°
2026-04-17 15:24 1.40218 103.80633 4600 ft 91 kts 154°
2026-04-17 15:24 1.39757 103.81064 4392 ft 89 kts 124°
2026-04-17 15:25 1.39476 103.81603 4195 ft 87 kts 115°
2026-04-17 15:25 1.39294 103.82185 3986 ft 87 kts 95°
2026-04-17 15:25 1.39353 103.82783 3779 ft 88 kts 78°
2026-04-17 15:25 1.39500 103.83375 3591 ft 86 kts 76°
2026-04-17 15:26 1.39654 103.83956 3348 ft 90 kts 73°
2026-04-17 15:26 1.39848 103.84571 3139 ft 96 kts 70°
2026-04-17 15:26 1.40121 103.85155 3358 ft 93 kts 61°
2026-04-17 15:26 1.40453 103.85716 3551 ft 91 kts 56°
2026-04-17 15:27 1.40828 103.86215 3749 ft 90 kts 47°
2026-04-17 15:27 1.41253 103.86656 3893 ft 81 kts 46°
2026-04-17 15:27 1.41693 103.87056 3912 ft 87 kts 22°
2026-04-17 15:27 1.42217 103.87004 4170 ft 75 kts 327°
2026-04-17 15:28 1.42498 103.86544 4292 ft 83 kts 269°
2026-04-17 15:28 1.42271 103.86039 4494 ft 78 kts 228°
2026-04-17 15:28 1.41849 103.85658 4645 ft 82 kts 215°
2026-04-17 15:28 1.41382 103.85336 4806 ft 80 kts 211°
2026-04-17 15:29 1.40917 103.85049 4971 ft 79 kts 208°
2026-04-17 15:29 1.40441 103.84761 5066 ft 85 kts 220°
2026-04-17 15:29 1.40047 103.84300 5210 ft 87 kts 231°
2026-04-17 15:29 1.39659 103.83846 5376 ft 85 kts 225°
2026-04-17 15:30 1.39288 103.83390 5518 ft 86 kts 233°
2026-04-17 15:30 1.38981 103.82906 5615 ft 75 kts 239°
2026-04-17 15:30 1.38709 103.82382 5354 ft 86 kts 246°
2026-04-17 15:30 1.38637 103.81814 5186 ft 84 kts 275°
2026-04-17 15:31 1.38715 103.81181 4912 ft 93 kts 281°
2026-04-17 15:31 1.38892 103.80577 4724 ft 89 kts 309°
2026-04-17 15:31 1.39468 103.80531 4436 ft 96 kts 44°
2026-04-17 15:31 1.39745 103.81108 4236 ft 92 kts 76°
2026-04-17 15:32 1.39857 103.81731 4044 ft 88 kts 84°
2026-04-17 15:32 1.39920 103.82356 4054 ft 88 kts 80°
2026-04-17 15:32 1.40193 103.82855 4286 ft 82 kts 32°
2026-04-17 15:32 1.40744 103.83029 4443 ft 85 kts 12°
2026-04-17 15:33 1.41320 103.83063 4644 ft 82 kts 341°
2026-04-17 15:33 1.41787 103.82718 4798 ft 83 kts 313°
2026-04-17 15:33 1.42081 103.82239 4968 ft 80 kts 271°
2026-04-17 15:33 1.41962 103.81682 5096 ft 84 kts 252°
2026-04-17 15:34 1.41749 103.81160 5270 ft 81 kts 238°
2026-04-17 15:34 1.41276 103.80881 5395 ft 82 kts 184°
2026-04-17 15:34 1.40718 103.80864 5290 ft 82 kts 172°
2026-04-17 15:34 1.40185 103.81057 5088 ft 85 kts 135°
2026-04-17 15:35 1.40151 103.81601 4911 ft 83 kts 73°
2026-04-17 15:35 1.40288 103.82175 4726 ft 84 kts 81°
2026-04-17 15:35 1.40352 103.82742 4547 ft 83 kts 89°
2026-04-17 15:35 1.40347 103.83323 4362 ft 83 kts 91°
2026-04-17 15:36 1.40335 103.83910 4146 ft 87 kts 92°
2026-04-17 15:36 1.40316 103.84503 3973 ft 84 kts 90°
2026-04-17 15:36 1.40434 103.85068 3789 ft 84 kts 69°
2026-04-17 15:36 1.40754 103.85557 3591 ft 85 kts 34°
2026-04-17 15:37 1.41250 103.85392 3331 ft 92 kts 285°
2026-04-17 15:37 1.40995 103.84888 3153 ft 86 kts 200°
2026-04-17 15:37 1.40507 103.85112 2945 ft 85 kts 118°
2026-04-17 15:37 1.40375 103.85682 2758 ft 83 kts 91°
2026-04-17 15:38 1.40484 103.86236 2591 ft 80 kts 58°
2026-04-17 15:38 1.40926 103.86563 2398 ft 83 kts 27°
2026-04-17 15:38 1.41491 103.86568 2194 ft 86 kts 338°
2026-04-17 15:38 1.41897 103.86169 2023 ft 84 kts 292°
2026-04-17 15:39 1.41934 103.85588 1834 ft 83 kts 256°
2026-04-17 15:39 1.41621 103.85106 1646 ft 84 kts 218°
2026-04-17 15:39 1.41178 103.84745 1474 ft 83 kts 218°
2026-04-17 15:39 1.40683 103.84461 1299 ft 81 kts 191°
2026-04-17 15:40 1.40133 103.84520 1112 ft 80 kts 154°
2026-04-17 15:40 1.39728 103.84876 940 ft 79 kts 121°
2026-04-17 15:40 1.39654 103.85408 753 ft 80 kts 71°
2026-04-17 15:40 1.40085 103.85742 550 ft 82 kts 28°
2026-04-17 15:41 1.40569 103.86033 268 ft 79 kts 31°
2026-04-17 15:41 1.41009 103.86317 50 ft 65 kts 32°
2026-04-17 15:41 1.41305 103.86510 49 ft 40 kts 34°
2026-04-17 15:41 1.41483 103.86620 50 ft 18 kts 359°
2026-04-17 15:42 1.41542 103.86558 49 ft 10 kts 303°
2026-04-17 15:42 1.41552 103.86543 49 ft 0 kts 304°
2026-04-17 15:44 1.41560 103.86530 49 ft 1 kts 304°
2026-04-17 15:44 1.41572 103.86491 49 ft 7 kts 245°
2026-04-17 15:44 1.41498 103.86441 49 ft 11 kts 214°
2026-04-17 15:45 1.41477 103.86421 49 ft 4 kts 269°
2026-04-17 15:45 1.41471 103.86392 49 ft 1 kts 226°
2026-04-17 15:45 1.41461 103.86390 49 ft 0 kts 154°
2026-04-17 15:45 1.41453 103.86395 49 ft 0 kts 148°
2026-04-17 15:52 1.41452 103.86396 49 ft 0 kts 149°